Time;durP1;ratioP1;P1;durP2;ratioP2;P2;SDS_P1;SDS_P2;PMS_P1;PMS_P2;Temp;Humidity;BMP_temperature;BMP_pressure;BME280_temperature;BME280_humidity;BME280_pressure;Samples;Min_cycle;Max_cycle;Signal;HPM_P1;HPM_P2
2022/07/14 00:00:57;;;;;;;3.38;1.67;;;22.80;70.80;;;;;;4821443;29;20307;-67
2022/07/14 00:03:24;;;;;;;4.00;1.50;;;22.70;71.60;;;;;;4835768;29;20042;-67
2022/07/14 00:05:52;;;;;;;4.25;1.63;;;22.60;72.10;;;;;;4817180;29;20051;-67
2022/07/14 00:08:19;;;;;;;3.05;1.33;;;22.50;72.50;;;;;;4804244;29;20054;-67
2022/07/14 00:10:46;;;;;;;3.47;1.40;;;22.40;73.10;;;;;;4821865;29;20123;-67
2022/07/14 00:13:14;;;;;;;3.08;1.35;;;22.40;74.40;;;;;;4814594;29;20388;-67
2022/07/14 00:15:41;;;;;;;3.10;1.60;;;22.30;74.00;;;;;;4818572;29;20046;-66
2022/07/14 00:18:08;;;;;;;7.43;1.85;;;22.20;74.50;;;;;;4815318;29;20053;-67
2022/07/14 00:20:36;;;;;;;3.75;1.63;;;22.20;74.60;;;;;;4832319;29;20050;-67
2022/07/14 00:23:04;;;;;;;2.53;1.45;;;22.20;74.80;;;;;;4815648;29;20043;-67
2022/07/14 00:25:31;;;;;;;3.45;1.70;;;22.10;75.10;;;;;;4796130;29;20867;-67
2022/07/14 00:27:58;;;;;;;3.35;1.50;;;22.10;75.80;;;;;;4816661;29;20150;-67
2022/07/14 00:30:26;;;;;;;3.08;1.42;;;22.10;76.10;;;;;;4833721;29;20843;-66
2022/07/14 00:32:54;;;;;;;3.58;1.60;;;22.10;76.30;;;;;;4809436;29;20054;-67
2022/07/14 00:35:21;;;;;;;2.67;1.50;;;22.00;76.60;;;;;;4835368;29;20184;-71
2022/07/14 00:37:50;;;;;;;4.78;1.83;;;22.00;76.70;;;;;;4802459;29;20352;-67
2022/07/14 00:40:17;;;;;;;4.88;1.92;;;22.00;77.00;;;;;;4814097;29;20095;-67
2022/07/14 00:42:47;;;;;;;3.83;1.80;;;22.00;77.40;;;;;;4792227;29;20498;-66
2022/07/14 00:45:19;;;;;;;5.07;1.80;;;22.00;77.60;;;;;;4812869;29;20056;-67
2022/07/14 00:47:48;;;;;;;6.20;1.80;;;22.00;77.80;;;;;;4812749;29;20526;-67
2022/07/14 00:50:17;;;;;;;3.60;1.95;;;22.00;78.40;;;;;;4811157;29;20054;-66
2022/07/14 00:52:49;;;;;;;6.25;2.38;;;21.90;78.80;;;;;;4817368;29;20066;-66
2022/07/14 00:55:17;;;;;;;6.60;2.25;;;21.90;79.30;;;;;;4811266;29;20398;-67
2022/07/14 00:57:46;;;;;;;5.40;2.45;;;21.90;79.80;;;;;;4792205;29;20058;-67
2022/07/14 01:00:16;;;;;;;4.03;2.15;;;21.90;80.30;;;;;;4827594;29;20074;-67
2022/07/14 01:02:45;;;;;;;5.03;1.98;;;21.90;80.60;;;;;;4815872;29;20054;-67
2022/07/14 01:05:13;;;;;;;5.30;1.90;;;21.90;81.00;;;;;;4809354;29;20050;-66
2022/07/14 01:07:41;;;;;;;4.55;2.15;;;21.90;81.50;;;;;;4812898;29;20070;-67
2022/07/14 01:10:09;;;;;;;2.97;1.60;;;21.80;81.70;;;;;;4817591;29;20748;-68
2022/07/14 01:12:38;;;;;;;4.35;1.80;;;21.80;81.90;;;;;;4801287;29;20057;-66
2022/07/14 01:15:06;;;;;;;3.97;1.67;;;21.90;81.30;;;;;;4808293;29;20050;-66
2022/07/14 01:17:33;;;;;;;5.97;1.83;;;21.90;81.40;;;;;;4795325;29;20047;-66
2022/07/14 01:20:01;;;;;;;3.70;1.80;;;21.90;81.50;;;;;;4815558;29;20050;-66
2022/07/14 01:22:28;;;;;;;4.80;1.52;;;22.00;81.40;;;;;;4794384;29;20047;-66
2022/07/14 01:24:56;;;;;;;4.80;1.70;;;22.00;81.30;;;;;;4803888;29;20522;-67
2022/07/14 01:27:23;;;;;;;5.50;1.63;;;22.00;81.10;;;;;;4806580;29;20407;-68
2022/07/14 01:29:50;;;;;;;3.33;1.70;;;22.10;81.20;;;;;;4800450;29;20042;-66
2022/07/14 01:32:18;;;;;;;2.97;1.60;;;22.10;81.40;;;;;;4784267;29;20080;-67
2022/07/14 01:34:45;;;;;;;5.85;1.80;;;22.10;80.90;;;;;;4818890;29;20213;-66
2022/07/14 01:37:12;;;;;;;4.30;1.60;;;22.10;80.70;;;;;;4819556;29;20609;-67
2022/07/14 01:39:39;;;;;;;4.72;1.50;;;22.10;80.70;;;;;;4819230;29;20064;-67
2022/07/14 01:42:08;;;;;;;5.03;1.70;;;22.10;80.90;;;;;;4806656;29;20104;-67
2022/07/14 01:44:35;;;;;;;7.93;2.00;;;22.10;81.40;;;;;;4803169;29;20053;-67
2022/07/14 01:47:10;;;;;;;5.70;1.98;;;22.10;82.00;;;;;;5090849;27;20415;-66
2022/07/14 01:49:38;;;;;;;3.97;1.67;;;22.00;82.50;;;;;;5063374;28;20098;-66
2022/07/14 01:52:07;;;;;;;3.15;1.70;;;22.00;82.50;;;;;;5062972;28;20449;-66
2022/07/14 01:54:37;;;;;;;2.90;1.55;;;22.00;82.50;;;;;;5097023;28;20047;-66
2022/07/14 01:57:06;;;;;;;2.67;1.70;;;22.00;82.40;;;;;;5117286;28;20068;-66
2022/07/14 01:59:33;;;;;;;5.50;1.60;;;22.00;82.50;;;;;;5083873;28;20086;-66
2022/07/14 02:02:02;;;;;;;3.42;1.50;;;22.00;83.00;;;;;;5072924;28;20584;-65
2022/07/14 02:04:29;;;;;;;2.88;1.80;;;22.00;83.20;;;;;;5084513;28;20158;-66
2022/07/14 02:06:57;;;;;;;5.07;2.00;;;22.00;83.70;;;;;;5077296;28;20040;-65
2022/07/14 02:12:38;;;;;;;4.82;1.90;;;21.90;84.90;;;;;;5092059;28;20037;-66
2022/07/14 02:15:09;;;;;;;5.75;1.90;;;21.80;86.10;;;;;;5071141;28;20341;-65
2022/07/14 02:17:37;;;;;;;4.25;2.10;;;21.80;87.40;;;;;;5063586;28;20044;-66
2022/07/14 02:20:05;;;;;;;3.97;1.98;;;21.70;88.10;;;;;;5080569;28;20494;-66
2022/07/14 02:22:33;;;;;;;4.65;2.08;;;21.60;89.10;;;;;;5079074;28;20513;-66
2022/07/14 02:25:00;;;;;;;4.10;2.33;;;21.50;90.20;;;;;;5082108;28;20052;-66
2022/07/14 02:27:27;;;;;;;4.00;1.98;;;21.50;90.70;;;;;;5071542;28;20709;-67
2022/07/14 02:29:55;;;;;;;3.92;2.15;;;21.40;91.20;;;;;;5083403;28;20121;-67
2022/07/14 02:32:22;;;;;;;3.47;2.03;;;21.40;91.70;;;;;;5066641;28;20098;-66
2022/07/14 02:34:50;;;;;;;5.00;2.20;;;21.30;92.20;;;;;;5063396;28;20499;-67
2022/07/14 02:37:17;;;;;;;6.78;2.45;;;21.20;92.60;;;;;;5079204;28;20076;-66
2022/07/14 02:39:44;;;;;;;5.30;2.10;;;21.20;93.20;;;;;;5077095;28;20037;-67
2022/07/14 02:42:11;;;;;;;6.22;2.47;;;21.10;93.40;;;;;;5076650;28;20525;-66
2022/07/14 02:44:39;;;;;;;5.20;2.60;;;21.10;93.50;;;;;;5074811;28;20410;-66
2022/07/14 02:47:07;;;;;;;6.95;2.20;;;21.10;93.70;;;;;;5082119;28;20064;-66
2022/07/14 02:49:34;;;;;;;4.45;2.30;;;21.10;93.80;;;;;;5082583;28;20090;-65
2022/07/14 02:52:01;;;;;;;6.40;2.20;;;21.00;93.90;;;;;;5081814;28;20143;-66
2022/07/14 02:54:29;;;;;;;6.10;2.60;;;20.90;94.30;;;;;;5071118;28;20079;-66
2022/07/14 02:56:56;;;;;;;4.30;2.08;;;20.90;95.00;;;;;;5077094;28;20665;-65
2022/07/14 02:59:24;;;;;;;5.78;2.30;;;20.80;95.00;;;;;;5064126;28;20131;-66
2022/07/14 03:01:52;;;;;;;5.60;2.70;;;20.70;95.50;;;;;;5057837;28;20037;-66
2022/07/14 03:04:21;;;;;;;4.80;2.60;;;20.70;95.90;;;;;;5059678;28;20463;-66
2022/07/14 03:06:53;;;;;;;6.37;2.70;;;20.60;96.10;;;;;;5058444;28;21982;-66
2022/07/14 03:09:22;;;;;;;7.38;2.92;;;20.50;96.30;;;;;;5063845;28;20048;-68
2022/07/14 03:11:50;;;;;;;4.22;2.05;;;20.40;96.80;;;;;;5067618;28;20429;-67
2022/07/14 03:14:18;;;;;;;6.80;2.33;;;20.40;97.20;;;;;;5061162;28;20458;-67
2022/07/14 03:16:46;;;;;;;5.15;2.47;;;20.40;97.80;;;;;;5062134;28;20090;-66
2022/07/14 03:19:14;;;;;;;4.88;2.85;;;20.30;98.20;;;;;;5045190;28;20064;-66
2022/07/14 03:21:44;;;;;;;9.75;2.75;;;20.20;98.70;;;;;;5065863;28;20053;-66
2022/07/14 03:24:13;;;;;;;6.53;2.38;;;20.20;99.20;;;;;;5063858;28;20127;-66
2022/07/14 03:26:41;;;;;;;5.00;2.58;;;20.20;99.60;;;;;;5062742;28;20111;-66
2022/07/14 03:29:09;;;;;;;5.55;2.45;;;20.20;99.90;;;;;;5058237;28;20039;-67
2022/07/14 03:31:36;;;;;;;4.97;2.60;;;20.20;99.90;;;;;;5041208;28;20496;-66
2022/07/14 03:34:08;;;;;;;4.15;2.50;;;20.10;99.90;;;;;;5047942;28;20614;-68
2022/07/14 03:36:37;;;;;;;7.72;2.65;;;20.10;99.90;;;;;;5062651;28;20063;-66
2022/07/14 03:39:14;;;;;;;7.28;2.88;;;20.10;99.90;;;;;;5067753;28;20489;-66
2022/07/14 03:41:42;;;;;;;8.07;2.90;;;20.10;99.90;;;;;;5068060;28;20044;-66
2022/07/14 03:44:10;;;;;;;6.75;2.53;;;20.10;99.90;;;;;;5050060;28;20064;-66
2022/07/14 03:46:38;;;;;;;6.82;3.00;;;20.10;99.90;;;;;;5067921;28;20470;-67
2022/07/14 03:49:11;;;;;;;6.15;2.70;;;20.10;99.90;;;;;;5067808;28;20040;-66
2022/07/14 03:51:43;;;;;;;4.13;2.40;;;20.10;99.90;;;;;;5056225;28;20495;-66
2022/07/14 03:54:14;;;;;;;6.57;2.40;;;20.10;99.90;;;;;;5057531;28;20041;-66
2022/07/14 03:56:42;;;;;;;7.20;3.60;;;20.10;99.90;;;;;;5057330;28;20036;-67
2022/07/14 03:59:10;;;;;;;5.65;3.65;;;20.00;99.90;;;;;;5067109;28;20518;-68
2022/07/14 04:01:38;;;;;;;7.85;4.53;;;20.10;99.90;;;;;;5066941;28;20051;-67
2022/07/14 04:04:06;;;;;;;11.20;4.90;;;20.10;99.90;;;;;;5053639;28;20048;-66
2022/07/14 04:06:34;;;;;;;11.38;6.35;;;20.10;99.90;;;;;;5055083;28;20032;-67
2022/07/14 04:09:02;;;;;;;8.05;5.25;;;20.10;99.90;;;;;;5054253;28;20120;-66
2022/07/14 04:11:33;;;;;;;7.28;4.47;;;20.10;99.90;;;;;;5055361;28;20045;-66
2022/07/14 04:14:01;;;;;;;6.32;3.80;;;20.10;99.90;;;;;;5057497;28;20052;-66
2022/07/14 04:16:29;;;;;;;7.97;3.65;;;20.20;99.90;;;;;;5064208;28;20041;-67
2022/07/14 04:18:58;;;;;;;6.63;3.38;;;20.20;99.90;;;;;;5054361;28;20060;-66
2022/07/14 04:21:25;;;;;;;8.02;4.13;;;20.20;99.90;;;;;;5067042;28;20522;-67
2022/07/14 04:23:53;;;;;;;9.02;4.13;;;20.20;99.90;;;;;;5068705;28;20461;-67
2022/07/14 04:26:20;;;;;;;7.70;3.70;;;20.30;99.90;;;;;;5068065;28;20068;-65
2022/07/14 04:28:48;;;;;;;7.53;5.10;;;20.30;99.90;;;;;;5057295;28;20028;-67
2022/07/14 04:31:15;;;;;;;6.43;3.60;;;20.30;99.90;;;;;;5055490;28;20530;-67
2022/07/14 04:33:43;;;;;;;6.28;2.80;;;20.30;99.90;;;;;;5057249;28;20569;-68
2022/07/14 04:36:12;;;;;;;5.70;2.75;;;20.40;99.90;;;;;;5056862;28;20127;-67
2022/07/14 04:38:40;;;;;;;7.72;3.15;;;20.50;99.90;;;;;;5066890;28;20102;-67
2022/07/14 04:41:08;;;;;;;8.52;3.60;;;20.60;99.90;;;;;;5059473;28;20044;-67
2022/07/14 04:43:39;;;;;;;5.82;2.80;;;20.60;99.90;;;;;;5064201;28;20044;-67
2022/07/14 04:46:09;;;;;;;8.63;2.80;;;20.70;99.90;;;;;;5056630;28;20060;-67
2022/07/14 04:54:18;;;;;;;5.97;3.10;;;20.90;99.90;;;;;;5048697;28;20044;-67
2022/07/14 04:56:53;;;;;;;9.30;5.55;;;20.90;99.90;;;;;;5034615;28;20037;-67
2022/07/14 04:59:33;;;;;;;7.93;3.90;;;21.00;99.90;;;;;;5058148;28;20040;-67
2022/07/14 05:02:01;;;;;;;7.85;3.55;;;21.00;99.90;;;;;;5047094;28;20561;-67
2022/07/14 05:04:29;;;;;;;9.00;4.20;;;21.00;99.90;;;;;;5062009;28;20067;-68
2022/07/14 05:06:57;;;;;;;7.93;3.50;;;21.10;99.90;;;;;;5047934;28;20525;-68
2022/07/14 05:09:26;;;;;;;7.53;3.65;;;21.20;99.90;;;;;;5060911;28;20045;-65
2022/07/14 05:11:53;;;;;;;14.60;6.95;;;21.30;99.90;;;;;;5067191;28;20044;-67
2022/07/14 05:14:22;;;;;;;11.52;5.70;;;21.40;99.90;;;;;;5060610;28;20052;-67
2022/07/14 05:16:49;;;;;;;11.95;4.50;;;21.40;99.90;;;;;;5047425;28;20042;-66
2022/07/14 05:19:39;;;;;;;7.03;3.75;;;21.50;99.90;;;;;;5049542;28;20411;-67
2022/07/14 05:22:06;;;;;;;7.75;3.58;;;21.60;99.90;;;;;;5038894;28;20404;-67
2022/07/14 05:24:34;;;;;;;15.23;3.90;;;21.60;99.90;;;;;;5040062;28;20074;-67
2022/07/14 05:27:02;;;;;;;6.47;3.35;;;21.60;99.90;;;;;;5068207;28;20044;-67
2022/07/14 05:29:33;;;;;;;8.73;3.75;;;21.70;99.90;;;;;;5047474;28;20569;-66
2022/07/14 05:32:00;;;;;;;7.72;3.65;;;21.80;99.90;;;;;;5047933;28;20415;-66
2022/07/14 05:34:31;;;;;;;9.23;3.50;;;21.80;99.90;;;;;;5051623;28;20032;-69
2022/07/14 05:36:59;;;;;;;7.97;3.70;;;21.90;99.90;;;;;;5042226;28;20597;-67
2022/07/14 05:39:27;;;;;;;6.88;3.60;;;22.00;99.90;;;;;;5052877;28;20068;-67
2022/07/14 05:41:55;;;;;;;8.80;3.70;;;22.10;99.90;;;;;;5051119;28;20454;-67
2022/07/14 05:44:22;;;;;;;6.55;3.63;;;22.10;99.90;;;;;;5054954;28;20451;-66
2022/07/14 05:46:50;;;;;;;10.95;3.58;;;22.20;99.90;;;;;;5065285;28;20494;-65
2022/07/14 05:49:17;;;;;;;8.77;4.10;;;22.30;99.90;;;;;;5059062;28;20052;-66
2022/07/14 05:51:51;;;;;;;7.00;3.42;;;22.30;99.90;;;;;;5044904;28;20527;-66
2022/07/14 05:54:18;;;;;;;5.78;3.05;;;22.40;99.90;;;;;;5054424;28;20578;-66
2022/07/14 05:56:46;;;;;;;6.10;3.10;;;22.50;99.90;;;;;;5047716;28;20049;-66
2022/07/14 05:59:13;;;;;;;6.50;3.15;;;22.60;99.90;;;;;;5051816;28;20056;-67
2022/07/14 06:02:01;;;;;;;7.65;3.22;;;22.70;99.90;;;;;;5051214;28;20176;-68
2022/07/14 06:04:29;;;;;;;5.38;3.00;;;22.90;99.90;;;;;;5053401;28;20507;-68
2022/07/14 06:06:59;;;;;;;10.45;3.75;;;23.00;99.90;;;;;;5056592;28;20511;-69
2022/07/14 06:09:27;;;;;;;7.07;3.20;;;23.10;99.90;;;;;;5049741;28;20475;-69
2022/07/14 06:11:55;;;;;;;7.70;3.30;;;23.30;99.90;;;;;;5048412;28;20051;-69
2022/07/14 06:14:25;;;;;;;11.00;3.10;;;23.40;99.90;;;;;;5049958;28;20046;-69
2022/07/14 06:16:52;;;;;;;9.68;3.00;;;23.60;99.80;;;;;;5036001;28;20099;-68
2022/07/14 06:19:19;;;;;;;7.75;2.97;;;23.80;99.60;;;;;;5058567;28;20040;-70
2022/07/14 06:21:47;;;;;;;8.23;3.30;;;23.90;99.30;;;;;;5059660;28;20539;-69
2022/07/14 06:24:15;;;;;;;11.30;3.33;;;24.10;98.80;;;;;;5060040;28;20062;-69
2022/07/14 06:26:42;;;;;;;5.70;2.47;;;24.20;98.60;;;;;;5049024;28;20527;-68
2022/07/14 06:29:11;;;;;;;10.88;3.10;;;24.20;98.50;;;;;;5043173;28;20040;-68
2022/07/14 06:31:40;;;;;;;9.00;2.75;;;24.30;97.90;;;;;;5049133;28;20048;-69
2022/07/14 06:34:11;;;;;;;9.07;2.90;;;24.30;97.90;;;;;;5060015;28;20518;-67
2022/07/14 06:36:47;;;;;;;10.45;2.90;;;24.40;97.90;;;;;;5050423;28;20128;-68
2022/07/14 06:39:15;;;;;;;10.13;2.90;;;24.60;97.40;;;;;;5050088;28;20507;-69
2022/07/14 06:41:43;;;;;;;16.02;3.55;;;24.80;97.10;;;;;;5039769;28;20045;-71
2022/07/14 06:44:13;;;;;;;7.43;2.78;;;24.90;96.80;;;;;;5052780;28;20044;-68
2022/07/14 06:46:44;;;;;;;8.60;2.67;;;24.90;96.70;;;;;;5063603;28;20042;-70
2022/07/14 06:49:11;;;;;;;7.75;2.78;;;25.20;96.50;;;;;;5062657;28;20040;-69
2022/07/14 06:51:38;;;;;;;7.15;2.65;;;25.30;96.20;;;;;;5051189;28;20040;-69
2022/07/14 06:54:07;;;;;;;6.40;2.50;;;25.50;96.10;;;;;;5064827;28;20564;-70
2022/07/14 06:56:34;;;;;;;7.30;2.53;;;25.60;95.50;;;;;;5055972;28;20068;-70
2022/07/14 06:59:01;;;;;;;11.43;5.93;;;25.70;95.30;;;;;;5064605;28;20099;-70
2022/07/14 07:01:28;;;;;;;6.25;2.67;;;25.70;95.30;;;;;;5059128;28;20422;-70
2022/07/14 07:03:56;;;;;;;9.48;3.53;;;25.90;94.90;;;;;;5063246;28;20048;-69
2022/07/14 07:09:10;;;;;;;5.68;2.60;;;26.10;94.80;;;;;;5050971;28;20916;-69
2022/07/14 07:11:38;;;;;;;5.10;2.80;;;26.30;94.30;;;;;;5052574;28;20040;-70
2022/07/14 07:14:05;;;;;;;13.27;7.97;;;26.50;94.10;;;;;;5058140;28;20107;-69
2022/07/14 07:16:33;;;;;;;6.97;3.97;;;26.60;93.90;;;;;;5056443;28;20139;-69
2022/07/14 07:19:01;;;;;;;6.25;2.70;;;26.70;93.70;;;;;;5058273;28;20052;-69
2022/07/14 07:21:29;;;;;;;7.88;4.10;;;26.90;93.40;;;;;;5067044;28;20102;-68
2022/07/14 07:23:56;;;;;;;4.45;2.50;;;27.10;93.10;;;;;;5063027;28;20108;-68
2022/07/14 07:26:27;;;;;;;8.52;2.58;;;27.40;92.60;;;;;;5068506;28;20048;-68
2022/07/14 07:28:54;;;;;;;6.45;2.70;;;27.50;92.30;;;;;;5065328;28;20037;-70
2022/07/14 07:31:29;;;;;;;10.50;2.83;;;27.90;91.90;;;;;;5069305;28;20048;-69
2022/07/14 07:33:58;;;;;;;7.05;2.72;;;27.90;91.50;;;;;;5060667;28;20090;-68
2022/07/14 07:36:25;;;;;;;6.80;2.58;;;27.90;91.10;;;;;;5046947;28;20068;-69
2022/07/14 07:38:53;;;;;;;6.90;2.38;;;27.90;91.10;;;;;;5060433;28;20040;-69
2022/07/14 07:41:20;;;;;;;7.60;2.53;;;27.90;91.10;;;;;;5058759;28;20519;-70
2022/07/14 07:43:47;;;;;;;8.15;3.45;;;27.70;90.90;;;;;;5068465;28;20615;-69
2022/07/14 07:46:15;;;;;;;5.45;2.80;;;27.70;91.10;;;;;;5067634;28;20507;-68
2022/07/14 07:48:42;;;;;;;5.53;2.33;;;27.80;90.90;;;;;;5060985;28;20037;-71
2022/07/14 07:51:10;;;;;;;9.70;2.53;;;27.50;90.60;;;;;;5063859;28;20055;-68
2022/07/14 07:53:38;;;;;;;6.68;2.28;;;27.30;91.00;;;;;;5057670;28;20033;-69
2022/07/14 07:56:06;;;;;;;7.80;4.15;;;27.30;91.10;;;;;;5052410;28;20037;-70
2022/07/14 07:58:33;;;;;;;8.63;3.20;;;27.30;90.80;;;;;;5057259;28;20040;-69
2022/07/14 08:01:00;;;;;;;8.75;2.45;;;27.40;90.80;;;;;;5060384;28;20052;-70
2022/07/14 08:03:29;;;;;;;6.03;2.58;;;27.50;90.50;;;;;;5055846;28;20040;-69
2022/07/14 08:05:56;;;;;;;6.13;2.22;;;27.60;90.30;;;;;;5064785;28;20109;-68
2022/07/14 08:08:43;;;;;;;4.45;2.42;;;27.70;90.40;;;;;;5054459;28;20058;-69
2022/07/14 08:11:11;;;;;;;4.80;2.22;;;27.80;90.40;;;;;;5068941;28;20376;-70
2022/07/14 08:13:38;;;;;;;6.20;3.00;;;27.80;90.20;;;;;;5066261;28;20770;-68
2022/07/14 08:16:06;;;;;;;7.55;3.13;;;27.90;90.00;;;;;;5069038;28;20071;-70
2022/07/14 08:18:33;;;;;;;7.45;3.22;;;28.00;89.80;;;;;;5051962;28;20755;-68
2022/07/14 08:21:01;;;;;;;8.13;3.50;;;28.10;89.60;;;;;;5064471;28;20528;-69
2022/07/14 08:23:28;;;;;;;10.02;3.03;;;28.30;88.80;;;;;;5062669;28;20056;-70
2022/07/14 08:25:55;;;;;;;11.90;2.67;;;28.40;88.60;;;;;;5056562;28;20147;-68
2022/07/14 08:28:23;;;;;;;6.45;2.03;;;28.50;88.20;;;;;;5044587;28;20122;-69
2022/07/14 08:30:50;;;;;;;4.18;1.85;;;28.70;86.30;;;;;;5054557;28;20072;-68
2022/07/14 08:33:17;;;;;;;5.40;2.00;;;28.60;86.00;;;;;;5057683;28;20044;-69
2022/07/14 08:35:47;;;;;;;4.85;2.10;;;28.60;85.30;;;;;;5063681;28;20049;-68
2022/07/14 08:38:14;;;;;;;3.25;1.70;;;28.70;86.00;;;;;;5068059;28;20105;-68
2022/07/14 08:40:42;;;;;;;6.13;1.98;;;28.40;86.00;;;;;;5057680;28;20503;-68
2022/07/14 08:43:13;;;;;;;6.80;2.20;;;28.20;86.80;;;;;;5064124;28;20384;-68
2022/07/14 08:45:50;;;;;;;8.85;2.03;;;28.20;87.20;;;;;;5062981;28;20159;-69
2022/07/14 08:48:19;;;;;;;7.13;2.38;;;28.20;87.50;;;;;;5076212;28;20054;-70
2022/07/14 08:50:48;;;;;;;5.60;2.00;;;28.20;87.80;;;;;;5069312;28;20040;-69
2022/07/14 08:53:17;;;;;;;6.13;2.03;;;28.30;88.10;;;;;;5049630;28;20048;-71
2022/07/14 08:55:46;;;;;;;6.65;2.35;;;28.30;87.80;;;;;;5058749;28;20044;-69
2022/07/14 08:58:13;;;;;;;7.72;2.50;;;28.30;88.10;;;;;;5067594;28;20052;-70
2022/07/14 09:00:41;;;;;;;3.58;2.08;;;28.40;87.70;;;;;;5063725;28;20037;-69
2022/07/14 09:03:09;;;;;;;5.40;2.20;;;28.50;87.60;;;;;;5052007;28;20044;-70
2022/07/14 09:05:45;;;;;;;5.78;2.10;;;28.40;88.00;;;;;;5065476;28;20049;-70
2022/07/14 09:08:13;;;;;;;4.95;1.90;;;28.60;87.60;;;;;;5057669;28;20493;-70
2022/07/14 09:10:43;;;;;;;3.97;1.63;;;28.80;87.40;;;;;;5047484;28;20044;-69
2022/07/14 09:13:30;;;;;;;5.70;2.17;;;28.80;87.10;;;;;;5058730;28;20380;-68
2022/07/14 09:16:14;;;;;;;6.10;2.53;;;28.90;86.70;;;;;;5059290;28;20040;-69
2022/07/14 09:18:42;;;;;;;8.23;2.00;;;28.90;86.70;;;;;;5054715;28;20048;-70
2022/07/14 09:21:22;;;;;;;4.00;2.10;;;29.10;86.60;;;;;;5064176;28;20049;-69
2022/07/14 09:23:55;;;;;;;5.70;1.83;;;29.30;85.90;;;;;;5064107;28;20156;-69
2022/07/14 09:26:22;;;;;;;6.43;2.20;;;29.60;84.80;;;;;;5065005;28;20605;-70
2022/07/14 09:28:51;;;;;;;6.10;1.90;;;29.80;84.40;;;;;;5068353;28;20055;-70
2022/07/14 09:31:28;;;;;;;2.47;1.40;;;29.90;82.70;;;;;;5060762;28;20041;-70
2022/07/14 09:34:01;;;;;;;5.88;1.55;;;29.90;81.90;;;;;;5046410;28;20044;-68
2022/07/14 09:36:33;;;;;;;7.45;1.85;;;29.90;81.60;;;;;;5054483;28;20032;-69
2022/07/14 09:39:12;;;;;;;3.83;1.60;;;29.90;81.30;;;;;;5046446;28;20136;-70
2022/07/14 09:41:51;;;;;;;5.90;1.73;;;30.30;81.10;;;;;;5057081;28;20057;-68
2022/07/14 09:44:19;;;;;;;6.78;1.70;;;30.60;80.40;;;;;;5031757;28;20072;-67
2022/07/14 09:46:57;;;;;;;3.22;1.67;;;31.00;79.70;;;;;;5069581;28;20125;-70
2022/07/14 09:49:29;;;;;;;6.88;2.10;;;31.30;78.60;;;;;;5065475;28;20040;-68
2022/07/14 09:52:02;;;;;;;11.73;2.30;;;31.10;77.90;;;;;;5060687;28;20044;-69
2022/07/14 09:54:49;;;;;;;7.22;2.00;;;31.10;78.10;;;;;;5049843;28;20487;-68
2022/07/14 09:57:17;;;;;;;4.68;1.90;;;30.90;77.80;;;;;;5059472;28;20529;-67
2022/07/14 10:00:12;;;;;;;3.42;1.80;;;30.70;78.10;;;;;;5066068;28;20037;-69
2022/07/14 10:02:41;;;;;;;5.10;2.05;;;30.40;78.50;;;;;;5058904;28;20573;-66
2022/07/14 10:05:09;;;;;;;6.97;1.83;;;30.40;79.00;;;;;;5050094;28;20110;-67
2022/07/14 10:07:47;;;;;;;3.60;1.83;;;30.50;77.90;;;;;;5064150;28;20495;-69
2022/07/14 10:10:22;;;;;;;8.93;1.75;;;30.70;77.00;;;;;;5054863;28;20048;-68
2022/07/14 10:12:50;;;;;;;6.85;2.00;;;30.70;76.20;;;;;;5061274;28;20516;-71
2022/07/14 10:15:18;;;;;;;8.43;1.98;;;30.80;75.90;;;;;;5079172;28;20488;-69
2022/07/14 10:17:45;;;;;;;5.53;1.80;;;30.70;75.20;;;;;;5057995;28;20142;-68
2022/07/14 10:20:15;;;;;;;11.25;2.45;;;30.50;74.90;;;;;;5071564;28;20037;-69
2022/07/14 10:22:45;;;;;;;7.47;2.00;;;30.80;74.80;;;;;;5061243;28;20053;-69
2022/07/14 10:25:13;;;;;;;9.63;2.28;;;31.20;74.20;;;;;;5068972;28;20040;-68
2022/07/14 10:27:42;;;;;;;8.52;1.95;;;31.20;73.40;;;;;;5071745;28;20041;-68
2022/07/14 10:30:10;;;;;;;7.47;2.10;;;31.30;73.10;;;;;;5057409;28;20053;-66
2022/07/14 10:33:04;;;;;;;4.40;1.60;;;31.50;71.90;;;;;;5054196;28;20044;-66
2022/07/14 10:35:50;;;;;;;7.20;2.05;;;31.80;71.60;;;;;;5053627;28;20120;-65
2022/07/14 10:38:40;;;;;;;5.25;1.73;;;32.20;70.60;;;;;;5058368;28;20135;-66
2022/07/14 10:41:49;;;;;;;4.57;1.73;;;32.10;70.30;;;;;;5060593;28;20048;-65
2022/07/14 10:44:28;;;;;;;4.45;1.77;;;32.10;69.70;;;;;;5062751;28;20117;-66
2022/07/14 10:47:15;;;;;;;7.78;1.73;;;32.30;70.80;;;;;;5071680;28;20048;-66
2022/07/14 10:50:07;;;;;;;5.28;2.00;;;32.50;69.60;;;;;;5062260;28;20202;-66
2022/07/14 10:52:37;;;;;;;5.88;1.85;;;32.60;69.20;;;;;;5061110;28;20530;-64
2022/07/14 10:55:28;;;;;;;3.60;1.75;;;32.70;69.80;;;;;;5055512;28;20040;-64
2022/07/14 10:58:03;;;;;;;5.68;1.70;;;32.70;68.00;;;;;;5066615;28;20107;-64
2022/07/14 11:00:57;;;;;;;4.85;2.08;;;32.60;68.20;;;;;;5064739;28;20048;-64
2022/07/14 11:03:26;;;;;;;6.85;2.22;;;32.60;68.00;;;;;;5050833;28;20395;-64
2022/07/14 11:06:12;;;;;;;10.38;2.15;;;32.50;69.10;;;;;;5059780;28;20431;-66
2022/07/14 11:09:16;;;;;;;9.05;1.83;;;32.20;68.50;;;;;;5061188;28;20529;-62
2022/07/14 11:12:18;;;;;;;4.18;1.90;;;32.20;67.90;;;;;;5050852;28;20175;-65
2022/07/14 11:14:46;;;;;;;8.75;2.00;;;32.40;67.90;;;;;;4966337;28;20596;-64
2022/07/14 11:17:48;;;;;;;8.23;2.00;;;32.60;67.30;;;;;;4965279;28;20051;-65
2022/07/14 11:20:16;;;;;;;4.35;1.70;;;33.00;67.60;;;;;;4961594;28;20046;-65
2022/07/14 11:23:21;;;;;;;8.77;1.80;;;33.10;66.10;;;;;;4956370;28;20043;-65
2022/07/14 11:25:53;;;;;;;10.32;2.22;;;33.00;66.10;;;;;;4950882;28;20130;-64
2022/07/14 11:28:40;;;;;;;4.80;1.70;;;33.50;66.20;;;;;;4968698;28;20175;-63
2022/07/14 11:31:17;;;;;;;9.18;2.20;;;33.40;64.90;;;;;;4937175;28;20055;-64
2022/07/14 11:36:36;;;;;;;8.80;2.03;;;33.50;64.00;;;;;;4963962;28;20047;-63
2022/07/14 11:39:18;;;;;;;6.10;1.70;;;33.70;63.50;;;;;;4964143;28;20060;-64
2022/07/14 11:41:50;;;;;;;7.72;2.00;;;33.80;63.00;;;;;;4960529;28;20047;-65
2022/07/14 11:44:36;;;;;;;9.70;1.80;;;33.50;63.30;;;;;;4958441;28;20070;-66
2022/07/14 11:47:08;;;;;;;6.00;1.83;;;33.70;63.50;;;;;;4946086;28;20055;-66
2022/07/14 11:49:36;;;;;;;7.70;2.15;;;34.40;63.00;;;;;;5020498;28;20532;-66
2022/07/14 11:52:05;;;;;;;5.97;1.67;;;35.10;61.70;;;;;;5041573;28;20555;-67
2022/07/14 11:54:34;;;;;;;7.88;2.13;;;35.00;61.40;;;;;;5049579;28;20049;-66
2022/07/14 11:57:10;;;;;;;8.32;2.10;;;34.90;61.40;;;;;;5051390;28;20045;-65
2022/07/14 11:59:42;;;;;;;8.13;1.70;;;34.50;61.50;;;;;;5051849;28;20055;-66
2022/07/14 12:02:17;;;;;;;6.50;1.83;;;34.10;61.30;;;;;;5057320;28;20127;-65
2022/07/14 12:04:49;;;;;;;13.25;1.90;;;33.70;61.50;;;;;;5065437;28;20086;-66
2022/07/14 12:07:16;;;;;;;7.60;1.98;;;33.40;61.70;;;;;;5065242;28;20052;-63
2022/07/14 12:09:45;;;;;;;7.80;2.10;;;33.90;61.70;;;;;;5065252;28;20045;-62
2022/07/14 12:12:15;;;;;;;6.82;1.92;;;34.30;61.20;;;;;;5058860;28;20056;-64
2022/07/14 12:14:53;;;;;;;5.68;1.50;;;34.20;61.40;;;;;;5067132;28;20043;-65
2022/07/14 12:17:21;;;;;;;6.40;1.80;;;34.20;61.30;;;;;;5069494;28;20068;-65
2022/07/14 12:19:49;;;;;;;7.97;1.80;;;34.80;60.50;;;;;;5060678;28;20072;-67
2022/07/14 12:22:17;;;;;;;4.20;1.48;;;34.90;59.60;;;;;;5059058;28;20123;-65
2022/07/14 12:24:45;;;;;;;5.22;1.90;;;34.40;60.20;;;;;;5055624;28;20490;-65
2022/07/14 12:27:12;;;;;;;4.22;1.70;;;34.10;60.90;;;;;;5060410;28;20076;-64
2022/07/14 12:29:53;;;;;;;7.55;1.60;;;34.20;60.90;;;;;;5062676;28;20045;-65
2022/07/14 12:32:25;;;;;;;20.53;2.00;;;34.40;60.30;;;;;;5057019;28;20585;-63
2022/07/14 12:34:53;;;;;;;3.42;1.42;;;34.90;59.60;;;;;;5056955;28;20065;-65
2022/07/14 12:37:20;;;;;;;5.00;1.35;;;35.20;58.30;;;;;;5060322;28;20097;-68
2022/07/14 12:39:48;;;;;;;5.63;1.60;;;34.90;58.20;;;;;;5062172;28;20052;-66
2022/07/14 12:42:16;;;;;;;9.18;1.60;;;34.60;58.80;;;;;;5059896;28;20052;-66
2022/07/14 12:45:07;;;;;;;4.43;1.70;;;34.60;58.80;;;;;;5055439;28;20533;-65
2022/07/14 12:48:00;;;;;;;5.63;1.57;;;34.90;58.60;;;;;;5072691;28;20132;-65
2022/07/14 12:50:29;;;;;;;7.03;1.55;;;34.30;58.50;;;;;;5056850;28;20440;-65
2022/07/14 12:52:58;;;;;;;5.28;1.65;;;34.10;58.60;;;;;;5059381;28;20431;-65
2022/07/14 12:55:44;;;;;;;5.28;1.58;;;34.00;58.80;;;;;;5064364;28;20040;-66
2022/07/14 12:58:13;;;;;;;6.10;1.90;;;34.10;59.60;;;;;;5060173;28;20490;-66
2022/07/14 13:00:44;;;;;;;7.82;2.47;;;34.80;59.40;;;;;;5064002;28;20064;-66
2022/07/14 13:03:17;;;;;;;4.70;1.90;;;35.20;59.20;;;;;;5062308;28;20113;-65
2022/07/14 13:05:54;;;;;;;7.90;1.83;;;35.10;59.50;;;;;;5052438;28;20069;-66
2022/07/14 13:08:38;;;;;;;5.93;2.00;;;34.70;59.20;;;;;;5067863;28;20051;-66
2022/07/14 13:11:11;;;;;;;7.28;2.13;;;34.90;59.10;;;;;;5054117;28;20225;-65
2022/07/14 13:13:49;;;;;;;8.18;2.03;;;35.10;59.20;;;;;;5055904;28;20127;-68
2022/07/14 13:16:21;;;;;;;11.35;2.20;;;34.90;59.80;;;;;;5055588;28;20079;-66
2022/07/14 13:19:06;;;;;;;6.38;1.88;;;34.60;60.00;;;;;;5052629;28;20051;-66